Resultados de RENTAL AMARELINHOS DO KART / PROVA 6 - 21:00
KARTÓDROMO INTERNACIONAL GRANJA VIANA KGV RACE TRACKS - CIRCUITO 101
Resultados de RENTAL - AMARELINHOS DO KART / PROVA 6 - 21:00


Pos No. Nome Classe Comentários Voltas Total Tempo Melhor Tempo Diff Espaço
1 047 BRUNO BIONDO RENTAL 25 25:01.103 57.000
2 043 GILNEI SOARES RENTAL 25 25:05.617 57.158 4.514 4.514
3 026 ALEXANDRE ALBINO RENTAL 25 25:06.749 57.272 5.646 1.132
4 046 PAULO TORRES RENTAL 25 25:07.007 57.317 5.904 0.258
5 038 DOUGLAS CARDIM RENTAL 25 25:10.709 57.444 9.606 3.702
6 018 ARTHUR CAIRES RENTAL 25 25:13.839 57.522 12.736 3.130
7 039 MARCOS BARONE RENTAL ADV 25 25:14.420 57.259 13.317 0.581
8 023 ANDRÉ RELVAS RENTAL 25 25:14.514 57.513 13.411 0.094
9 011 EVANDRO COLTELLI RENTAL 25 25:15.530 57.446 14.427 1.016
10 045 EMÍLIO RENTAL 25 25:17.681 57.606 16.578 2.151
11 031 CEBOLA RENTAL 25 25:22.990 57.292 21.887 5.309
12 042 IAGO GODOY RENTAL 25 25:23.343 57.936 22.240 0.353
13 049 LUIZ RECHE RENTAL ADV 25 25:23.657 57.558 22.554 0.314
14 055 SANTANA RENTAL 25 25:32.741 58.041 31.638 9.084
15 005 EDUARDO RECHE RENTAL ADV 25 25:32.820 57.644 31.717 0.079
16 013 GIOVANI RENTAL 25 25:32.834 57.851 31.731 0.014
17 003 EDER AYRES RENTAL 25 25:34.007 57.717 32.904 1.173
18 052 FERNANDO COUTINHO RENTAL 25 25:34.103 58.229 33.000 0.096
19 035 SERGIO GONÇALVES RENTAL 25 25:34.407 57.852 33.304 0.304
20 019 RODRIGO SANAIE RENTAL 25 25:34.887 57.850 33.784 0.480
21 021 ARNALDO BIONDO RENTAL 25 25:42.203 57.336 41.100 7.316
22 029 VITOR VILAS RENTAL 25 25:46.461 58.346 45.358 4.258
23 010 AUGUSTO CARDOSO RENTAL 25 25:47.395 58.571 46.292 0.934
24 025 THALES COUTINHO RENTAL 25 25:52.388 58.046 51.285 4.993
25 008 LAERCIO PEREIRA RENTAL 25 25:53.223 58.372 52.120 0.835
26 036 CARLOS ABREU RENTAL 25 25:53.495 58.261 52.392 0.272
27 020 EDSON RECHE RENTAL 25 25:53.886 58.509 52.783 0.391
28 022 EDSON MOREIRA RENTAL 25 25:56.675 58.769 55.572 2.789
29 028 DIDI THE FLASH RENTAL 24 25:03.290 58.976 1 Lap 1 Lap
30 024 DILSON BEIÇOLA RENTAL 24 25:03.451 58.617 1 Lap 0.161
31 051 JOÃO BIONDO RENTAL 24 25:08.976 59.246 1 Lap 5.525
32 002 VAGNER ARCI RENTAL 24 25:09.562 59.109 1 Lap 0.586
33 027 WASHINGTON CURTOLO RENTAL 24 25:13.006 58.267 1 Lap 3.444
34 016 ALEXANDRE FRASANO RENTAL 24 25:18.150 59.604 1 Lap 5.144
35 034 RODRIGO MAXWELL RENTAL 24 25:22.306 59.650 1 Lap 4.156
36 030 MARIO MARTIN RENTAL 24 25:26.102 59.581 1 Lap 3.796
37 054 DANTE BIONDO RENTAL 24 25:52.407 1:01.083 1 Lap 26.305
38 048 JOÃO MARTIN RENTAL 21 25:24.678 1:00.563 4 Laps 3 Laps
Gerada em 08/06/2022 22:48